Time;durP1;ratioP1;P1;durP2;ratioP2;P2;SDS_P1;SDS_P2;PMS_P1;PMS_P2;Temp;Humidity;BMP_temperature;BMP_pressure;BME280_temperature;BME280_humidity;BME280_pressure;Samples;Min_cycle;Max_cycle;Signal;HPM_P1;HPM_P2
2021/11/29 00:03:53;;;;;;;31.10;20.90;;;;;;;-0.55;88.08;97178.80;422835;1308;143042;-68
2021/11/29 00:13:58;;;;;;;;;;;;;;;-0.50;87.77;97184.74;418762;1310;142164;-61
2021/11/29 00:24:06;;;;;;;31.30;19.60;;;;;;;-0.58;87.93;97206.84;418954;1311;152092;-62
2021/11/29 00:34:12;;;;;;;28.50;18.10;;;;;;;-0.67;88.33;97219.00;418887;1312;142212;-62
2021/11/29 00:44:19;;;;;;;32.30;19.40;;;;;;;-0.70;88.14;97220.71;418361;1312;141681;-61
2021/11/29 00:54:25;;;;;;;29.30;18.40;;;;;;;-0.74;88.35;97222.83;434096;1312;142899;-61
2021/11/29 01:04:33;;;;;;;26.30;14.30;;;;;;;-0.73;88.22;97224.66;433905;1310;142801;-61
2021/11/29 01:14:40;;;;;;;23.60;15.00;;;;;;;-0.66;88.37;97244.21;435053;1308;143083;-61
2021/11/29 01:24:46;;;;;;;22.90;15.30;;;;;;;-0.61;88.53;97233.98;435280;1310;142179;-61
2021/11/29 01:34:53;;;;;;;23.50;15.40;;;;;;;-0.70;88.56;97231.86;421106;1309;142909;-61
2021/11/29 01:44:59;;;;;;;28.40;17.60;;;;;;;-0.77;88.63;97227.13;417975;1307;142582;-60
2021/11/29 01:55:06;;;;;;;27.30;15.30;;;;;;;-0.87;88.86;97212.05;430700;1308;141678;-60
2021/11/29 02:05:13;;;;;;;23.20;14.70;;;;;;;-0.90;89.11;97226.29;433793;1306;142386;-61
2021/11/29 02:15:20;;;;;;;21.30;13.90;;;;;;;-0.90;89.02;97224.23;433677;1312;142668;-60
2021/11/29 02:25:27;;;;;;;21.50;12.40;;;;;;;-0.90;89.13;97229.56;435226;1307;142797;-61
2021/11/29 02:35:34;;;;;;;21.00;13.60;;;;;;;-0.90;89.42;97219.43;427300;1312;141475;-60
2021/11/29 02:45:41;;;;;;;22.50;15.00;;;;;;;-0.93;89.17;97224.73;419248;1312;142311;-61
2021/11/29 02:55:47;;;;;;;27.60;15.60;;;;;;;-0.94;89.65;97234.24;433537;1312;143742;-60
2021/11/29 03:05:53;;;;;;;22.90;14.90;;;;;;;-0.91;89.47;97236.48;434026;1309;188873;-60
2021/11/29 03:16:00;;;;;;;22.30;14.20;;;;;;;-0.91;89.66;97223.95;434883;1308;141960;-61
2021/11/29 03:26:12;;;;;;;22.20;13.50;;;;;;;-0.88;89.62;97230.48;433733;1311;142973;-61
2021/11/29 03:36:18;;;;;;;18.30;12.70;;;;;;;-0.88;89.77;97236.11;421445;1312;141788;-61
2021/11/29 03:46:25;;;;;;;17.70;12.40;;;;;;;-0.89;89.73;97241.02;429070;1310;275622;-61
2021/11/29 03:56:31;;;;;;;13.80;9.00;;;;;;;-0.92;89.72;97237.73;424015;1309;141021;-61
2021/11/29 04:06:37;;;;;;;13.00;9.60;;;;;;;-0.94;89.90;97234.23;432340;1309;141778;-60
2021/11/29 04:16:43;;;;;;;14.50;8.80;;;;;;;-0.94;89.88;97239.92;427800;1306;143274;-64
2021/11/29 04:26:52;;;;;;;14.00;8.80;;;;;;;-0.93;89.74;97244.64;434076;1309;141672;-61
2021/11/29 04:36:58;;;;;;;16.30;11.40;;;;;;;-0.88;89.56;97246.80;434686;1308;142161;-60
2021/11/29 04:47:04;;;;;;;15.40;10.20;;;;;;;-0.84;89.73;97253.44;434680;1309;141918;-61
2021/11/29 04:57:11;;;;;;;14.70;9.90;;;;;;;-0.81;89.60;97251.55;435204;1307;143224;-61
2021/11/29 05:07:17;;;;;;;21.80;12.70;;;;;;;-0.83;89.73;97247.94;434772;1308;142043;-60
2021/11/29 05:17:24;;;;;;;26.60;14.80;;;;;;;-0.89;89.77;97259.73;436039;1308;143167;-60
2021/11/29 05:27:30;;;;;;;28.90;19.30;;;;;;;-0.86;89.95;97275.01;430283;1314;143674;-60
2021/11/29 05:37:36;;;;;;;33.10;19.50;;;;;;;-0.83;90.20;97286.54;435224;1308;142207;-61
2021/11/29 05:47:42;;;;;;;34.60;19.20;;;;;;;-0.85;90.04;97295.08;432613;1309;141802;-61
2021/11/29 05:57:48;;;;;;;37.50;20.60;;;;;;;-0.86;90.00;97303.89;434714;1309;142995;-61
2021/11/29 06:07:54;;;;;;;36.80;19.20;;;;;;;-0.87;90.18;97309.42;433014;1309;143269;-60
2021/11/29 06:18:00;;;;;;;38.00;18.90;;;;;;;-0.93;90.04;97302.54;432817;1310;142491;-62
2021/11/29 06:28:07;;;;;;;34.60;20.50;;;;;;;-0.97;90.39;97313.92;427269;1309;143180;-61
2021/11/29 06:38:14;;;;;;;33.70;18.80;;;;;;;-0.96;90.34;97319.19;433594;1309;141411;-61
2021/11/29 06:48:21;;;;;;;32.90;18.80;;;;;;;-0.93;90.59;97340.15;424414;1309;142692;-60
2021/11/29 06:58:27;;;;;;;32.30;18.60;;;;;;;-0.89;90.55;97349.08;420204;1309;142036;-60
2021/11/29 07:08:37;;;;;;;31.90;17.20;;;;;;;-0.89;90.33;97345.48;428888;1312;143391;-60
2021/11/29 07:18:43;;;;;;;34.00;18.90;;;;;;;-0.89;90.50;97348.05;421378;1309;143491;-61
2021/11/29 07:28:50;;;;;;;33.20;17.50;;;;;;;-0.85;90.62;97357.28;419709;1306;142710;-61
2021/11/29 07:38:56;;;;;;;32.60;16.60;;;;;;;-0.83;90.54;97371.75;434509;1309;142367;-61
2021/11/29 07:49:03;;;;;;;32.60;18.30;;;;;;;-0.71;90.50;97391.91;435721;1306;142457;-61
2021/11/29 07:59:09;;;;;;;32.80;18.40;;;;;;;-0.63;90.45;97415.55;434674;1310;144125;-62
2021/11/29 08:09:15;;;;;;;32.10;16.70;;;;;;;-0.53;90.48;97424.33;432200;1309;141426;-69
2021/11/29 08:19:21;;;;;;;27.10;16.70;;;;;;;-0.52;90.36;97427.36;433131;1309;141483;-57
2021/11/29 08:29:27;;;;;;;26.10;15.20;;;;;;;-0.56;90.28;97423.09;414428;1309;20002335;-63
2021/11/29 08:39:33;;;;;;;24.60;15.40;;;;;;;-0.53;90.50;97421.54;432245;1313;141733;-65
2021/11/29 08:49:43;;;;;;;20.20;13.30;;;;;;;-0.54;90.15;97430.39;435647;1310;142403;-66
2021/11/29 08:59:49;;;;;;;21.00;14.70;;;;;;;-0.55;90.31;97434.38;435271;1309;142806;-62
2021/11/29 09:09:57;;;;;;;20.40;13.30;;;;;;;-0.50;90.10;97440.31;434807;1308;142249;-67
2021/11/29 09:20:04;;;;;;;24.00;16.50;;;;;;;-0.43;89.98;97438.06;435935;1310;143921;-59
2021/11/29 09:30:13;;;;;;;21.60;15.30;;;;;;;-0.38;90.04;97438.30;435171;1309;141492;-63
2021/11/29 09:40:25;;;;;;;19.30;13.90;;;;;;;-0.35;90.02;97440.87;435911;1307;145038;-61
2021/11/29 09:50:31;;;;;;;20.80;14.00;;;;;;;-0.35;89.64;97430.59;432763;1309;142082;-63
2021/11/29 10:00:40;;;;;;;20.70;15.40;;;;;;;-0.33;89.69;97422.35;433692;1314;141946;-62
2021/11/29 10:10:57;;;;;;;21.20;11.70;;;;;;;-0.34;89.61;97419.88;433542;1309;10001707;-66
2021/11/29 10:21:06;;;;;;;20.10;13.40;;;;;;;-0.29;89.83;97416.50;429327;1315;142529;-63
2021/11/29 10:31:19;;;;;;;22.10;13.40;;;;;;;-0.26;89.62;97412.39;434924;1310;142157;-65
2021/11/29 10:41:29;;;;;;;16.40;12.00;;;;;;;-0.23;89.41;97421.16;434591;1309;144226;-59
2021/11/29 10:51:35;;;;;;;16.40;11.70;;;;;;;-0.16;89.42;97421.27;434618;1311;142637;-60
2021/11/29 11:01:44;;;;;;;15.20;11.60;;;;;;;-0.16;89.34;97425.57;424326;1311;142225;-61
2021/11/29 11:11:52;;;;;;;19.70;13.80;;;;;;;-0.15;89.21;97436.71;429968;1313;142436;-63
2021/11/29 11:22:00;;;;;;;14.60;12.00;;;;;;;-0.23;89.17;97440.60;426030;1315;142935;-58
2021/11/29 11:32:19;;;;;;;17.40;12.60;;;;;;;-0.22;89.30;97442.91;434663;1315;143282;-60
2021/11/29 11:42:27;;;;;;;16.30;12.80;;;;;;;-0.15;89.03;97451.17;424321;1313;263108;-64
2021/11/29 11:52:32;;;;;;;;;;;;;;;-0.25;88.79;97460.13;432454;1310;141476;-59
2021/11/29 12:03:05;;;;;;;17.80;13.00;;;;;;;-0.27;88.80;97465.55;436030;1309;128255;-60
2021/11/29 12:13:15;;;;;;;17.10;12.10;;;;;;;-0.27;88.78;97470.73;433776;1311;141308;-60
2021/11/29 12:23:41;;;;;;;14.80;12.00;;;;;;;-0.16;88.74;97475.66;425864;1312;142475;-59
2021/11/29 12:33:47;;;;;;;18.80;14.10;;;;;;;-0.17;88.59;97472.76;420156;1310;142055;-59
2021/11/29 12:43:53;;;;;;;24.40;14.50;;;;;;;-0.19;88.62;97478.55;435733;1309;142703;-60
2021/11/29 12:54:00;;;;;;;22.00;16.20;;;;;;;-0.22;88.65;97480.29;433360;1310;142357;-61
2021/11/29 13:04:19;;;;;;;;;;;;;;;-0.27;88.49;97487.23;434540;1310;142107;-61
2021/11/29 13:14:28;;;;;;;22.70;16.20;;;;;;;-0.30;88.36;97494.80;435995;1309;127853;-65
2021/11/29 13:24:38;;;;;;;28.10;18.40;;;;;;;-0.33;88.24;97499.39;435145;1309;142449;-62
2021/11/29 13:34:47;;;;;;;23.10;15.60;;;;;;;-0.37;88.29;97510.60;426940;1309;141649;-64
2021/11/29 13:44:57;;;;;;;23.60;16.40;;;;;;;-0.37;88.43;97517.70;433330;1313;142302;-63
2021/11/29 13:55:07;;;;;;;21.70;17.20;;;;;;;-0.37;88.17;97521.78;435757;1310;143859;-63
2021/11/29 14:05:13;;;;;;;22.50;14.50;;;;;;;-0.35;88.38;97532.02;425327;1309;142410;-62
2021/11/29 14:15:21;;;;;;;21.30;15.00;;;;;;;-0.41;88.14;97544.67;414060;1309;10003203;-62
2021/11/29 14:25:27;;;;;;;18.60;14.40;;;;;;;-0.41;87.83;97555.16;429645;1310;142678;-61
2021/11/29 14:35:34;;;;;;;21.50;14.40;;;;;;;-0.45;88.02;97572.03;430392;1306;141989;-65
2021/11/29 14:45:47;;;;;;;21.90;14.70;;;;;;;-0.50;87.92;97587.45;434875;1307;141977;-69
2021/11/29 14:55:56;;;;;;;24.00;15.20;;;;;;;-0.50;88.16;97590.89;435617;1308;142492;-59
2021/11/29 15:06:09;;;;;;;24.30;16.40;;;;;;;-0.52;88.10;97604.91;428349;1309;141886;-59
2021/11/29 15:16:29;;;;;;;26.10;17.40;;;;;;;-0.53;88.08;97613.04;435502;1308;141302;-61
2021/11/29 15:26:37;;;;;;;22.10;16.00;;;;;;;-0.59;88.05;97618.46;430715;1309;142814;-58
2021/11/29 15:36:43;;;;;;;22.20;15.50;;;;;;;-0.63;88.10;97623.48;433712;1309;198655;-58
2021/11/29 15:46:49;;;;;;;25.60;17.60;;;;;;;-0.64;87.98;97629.75;427973;1307;143655;-59
2021/11/29 15:56:56;;;;;;;29.10;18.70;;;;;;;-0.63;88.13;97640.19;433768;1309;142534;-56
2021/11/29 16:07:03;;;;;;;24.60;16.30;;;;;;;-0.64;88.10;97651.38;431271;1309;142544;-64
2021/11/29 16:17:09;;;;;;;;;;;;;;;-0.65;88.00;97659.72;427421;1307;141358;-64
2021/11/29 16:27:15;;;;;;;21.00;16.60;;;;;;;-0.68;87.97;97682.17;423978;1309;127460;-63
2021/11/29 16:37:21;;;;;;;21.20;14.80;;;;;;;-0.69;88.00;97689.80;420745;1309;141954;-66
2021/11/29 16:47:28;;;;;;;21.50;15.10;;;;;;;-0.75;87.83;97709.28;421843;1309;141528;-64
2021/11/29 16:57:38;;;;;;;20.50;15.10;;;;;;;-0.74;87.92;97711.65;420523;1309;142259;-61
2021/11/29 17:07:44;;;;;;;22.90;16.00;;;;;;;-0.71;87.92;97723.57;420168;1308;145732;-63
2021/11/29 17:17:51;;;;;;;22.80;16.70;;;;;;;-0.75;87.90;97726.32;420383;1309;142506;-60
2021/11/29 17:27:57;;;;;;;23.90;16.50;;;;;;;-0.74;88.04;97742.77;420582;1309;141506;-62
2021/11/29 17:38:04;;;;;;;18.90;14.70;;;;;;;-0.73;88.08;97747.19;420418;1309;142315;-62
2021/11/29 17:48:12;;;;;;;20.20;15.20;;;;;;;-0.74;87.99;97750.83;419715;1309;141225;-62
2021/11/29 17:58:19;;;;;;;17.80;14.00;;;;;;;-0.78;87.99;97759.13;420056;1309;142161;-62
2021/11/29 18:08:32;;;;;;;19.20;15.30;;;;;;;-0.73;88.20;97772.61;420447;1306;142045;-63
2021/11/29 18:18:38;;;;;;;20.60;14.00;;;;;;;-0.74;88.01;97783.83;421271;1309;141864;-62
2021/11/29 18:28:44;;;;;;;;;;;;;;;-0.75;88.23;97785.61;427310;1309;142539;-62
2021/11/29 18:38:51;;;;;;;19.70;14.10;;;;;;;-0.73;88.51;97788.95;435361;1309;128249;-62
2021/11/29 18:48:57;;;;;;;19.10;13.40;;;;;;;-0.73;88.30;97806.63;435237;1308;141415;-63
2021/11/29 18:59:03;;;;;;;22.50;15.50;;;;;;;-0.67;88.45;97808.27;420000;1310;10002469;-61
2021/11/29 19:09:11;;;;;;;22.60;14.60;;;;;;;-0.64;88.54;97811.39;435107;1306;141900;-61
2021/11/29 19:19:17;;;;;;;20.80;13.50;;;;;;;-0.58;88.61;97810.27;434963;1312;143114;-62
2021/11/29 19:29:23;;;;;;;28.40;17.80;;;;;;;-0.53;88.69;97824.61;434453;1309;141917;-61
2021/11/29 19:39:30;;;;;;;22.70;16.30;;;;;;;-0.50;88.58;97837.72;433263;1309;143308;-59
2021/11/29 19:49:36;;;;;;;27.80;16.70;;;;;;;-0.53;88.66;97838.05;426980;1308;1059348;-60
2021/11/29 19:59:42;;;;;;;27.20;16.20;;;;;;;-0.51;88.68;97853.42;433391;1312;142816;-60
2021/11/29 20:09:48;;;;;;;24.40;14.90;;;;;;;-0.48;88.50;97855.49;434761;1309;142653;-60
2021/11/29 20:19:55;;;;;;;19.10;14.40;;;;;;;-0.41;88.94;97864.66;431384;1309;141549;-58
2021/11/29 20:30:01;;;;;;;21.20;14.40;;;;;;;-0.35;88.50;97868.34;432171;1311;143064;-59
2021/11/29 20:40:11;;;;;;;19.60;13.80;;;;;;;-0.30;88.40;97870.84;435299;1312;144861;-60
2021/11/29 20:50:18;;;;;;;19.30;14.30;;;;;;;-0.25;88.30;97876.45;433515;1308;144043;-59
2021/11/29 21:00:24;;;;;;;;;;;;;;;-0.23;88.04;97888.21;432850;1312;142971;-57
2021/11/29 21:10:31;;;;;;;15.40;11.80;;;;;;;-0.23;87.97;97896.32;435026;1312;128609;-57
2021/11/29 21:20:37;;;;;;;14.90;10.90;;;;;;;-0.25;87.99;97898.81;435461;1309;142938;-58
2021/11/29 21:30:43;;;;;;;16.10;10.90;;;;;;;-0.30;87.71;97905.04;435485;1309;142338;-58
2021/11/29 21:40:50;;;;;;;14.60;10.10;;;;;;;-0.28;87.74;97916.34;435344;1310;142045;-58
2021/11/29 21:50:56;;;;;;;12.20;9.90;;;;;;;-0.25;87.72;97926.48;433314;1310;142466;-59
2021/11/29 22:01:02;;;;;;;12.10;9.30;;;;;;;-0.21;87.75;97935.29;434289;1310;142159;-59
2021/11/29 22:11:09;;;;;;;17.10;12.50;;;;;;;-0.24;87.64;97936.80;420774;1311;141684;-58
2021/11/29 22:21:16;;;;;;;15.70;10.30;;;;;;;-0.26;87.57;97935.34;425184;1311;141776;-58
2021/11/29 22:31:23;;;;;;;12.80;9.60;;;;;;;-0.31;87.53;97943.63;428748;1306;142338;-59
2021/11/29 22:41:29;;;;;;;14.70;10.00;;;;;;;-0.24;87.68;97949.66;435439;1311;142096;-58
2021/11/29 22:51:37;;;;;;;12.70;10.30;;;;;;;-0.18;87.53;97953.70;434756;1307;142843;-59
2021/11/29 23:01:44;;;;;;;13.20;9.60;;;;;;;-0.13;87.68;97952.26;433716;1306;142868;-59
2021/11/29 23:11:50;;;;;;;13.10;10.40;;;;;;;-0.18;87.29;97948.04;430094;1311;142567;-58
2021/11/29 23:21:58;;;;;;;13.90;9.60;;;;;;;-0.12;87.68;97955.83;424820;1312;142057;-56
2021/11/29 23:32:05;;;;;;;14.60;10.40;;;;;;;-0.10;87.65;97967.42;421615;1310;141032;-56
2021/11/29 23:42:13;;;;;;;15.90;11.90;;;;;;;-0.12;87.74;97976.65;419575;1312;142440;-56
2021/11/29 23:52:22;;;;;;;16.40;10.90;;;;;;;-0.13;88.06;97989.09;420935;1311;142000;-56
